sensor_id;sensor_type;location;lat;lon;timestamp;temperature;humidity
22364;DHT22;11349;53.412;-1.328;2023-11-21T00:01:18;10.20;99.90
22364;DHT22;11349;53.412;-1.328;2023-11-21T00:03:43;10.00;99.90
22364;DHT22;11349;53.412;-1.328;2023-11-21T00:06:09;10.20;99.90
22364;DHT22;11349;53.412;-1.328;2023-11-21T00:08:36;10.20;99.90
22364;DHT22;11349;53.412;-1.328;2023-11-21T00:11:02;10.20;99.90
22364;DHT22;11349;53.412;-1.328;2023-11-21T00:13:31;10.10;99.90
22364;DHT22;11349;53.412;-1.328;2023-11-21T00:15:57;10.20;99.90
22364;DHT22;11349;53.412;-1.328;2023-11-21T00:18:23;10.00;99.90
22364;DHT22;11349;53.412;-1.328;2023-11-21T00:20:49;10.10;99.90
22364;DHT22;11349;53.412;-1.328;2023-11-21T00:23:14;10.10;99.90
22364;DHT22;11349;53.412;-1.328;2023-11-21T00:25:40;10.20;99.90
22364;DHT22;11349;53.412;-1.328;2023-11-21T00:28:06;10.20;99.90
22364;DHT22;11349;53.412;-1.328;2023-11-21T00:30:32;10.20;99.90
22364;DHT22;11349;53.412;-1.328;2023-11-21T00:32:57;10.10;99.90
22364;DHT22;11349;53.412;-1.328;2023-11-21T00:35:23;10.10;99.90
22364;DHT22;11349;53.412;-1.328;2023-11-21T00:37:49;10.10;99.90
22364;DHT22;11349;53.412;-1.328;2023-11-21T00:40:15;10.10;99.90
22364;DHT22;11349;53.412;-1.328;2023-11-21T00:42:41;10.00;99.90
22364;DHT22;11349;53.412;-1.328;2023-11-21T00:45:07;10.00;99.90
22364;DHT22;11349;53.412;-1.328;2023-11-21T00:47:33;10.00;99.90
22364;DHT22;11349;53.412;-1.328;2023-11-21T00:49:59;10.10;99.90
22364;DHT22;11349;53.412;-1.328;2023-11-21T00:52:25;10.20;99.90
22364;DHT22;11349;53.412;-1.328;2023-11-21T00:54:51;10.10;99.90
22364;DHT22;11349;53.412;-1.328;2023-11-21T00:57:17;10.00;99.90
22364;DHT22;11349;53.412;-1.328;2023-11-21T00:59:42;10.10;99.90
22364;DHT22;11349;53.412;-1.328;2023-11-21T01:02:08;10.10;99.90
22364;DHT22;11349;53.412;-1.328;2023-11-21T01:04:36;10.00;99.90
22364;DHT22;11349;53.412;-1.328;2023-11-21T01:07:01;10.10;99.90
22364;DHT22;11349;53.412;-1.328;2023-11-21T01:09:27;9.90;99.90
22364;DHT22;11349;53.412;-1.328;2023-11-21T01:11:53;10.00;99.90
22364;DHT22;11349;53.412;-1.328;2023-11-21T01:14:19;10.00;99.90
22364;DHT22;11349;53.412;-1.328;2023-11-21T01:16:45;9.90;99.90
22364;DHT22;11349;53.412;-1.328;2023-11-21T01:19:11;9.90;99.90
22364;DHT22;11349;53.412;-1.328;2023-11-21T01:21:36;10.00;99.90
22364;DHT22;11349;53.412;-1.328;2023-11-21T01:24:03;9.90;99.90
22364;DHT22;11349;53.412;-1.328;2023-11-21T01:26:29;9.90;99.90
22364;DHT22;11349;53.412;-1.328;2023-11-21T01:28:54;9.90;99.90
22364;DHT22;11349;53.412;-1.328;2023-11-21T01:31:20;9.90;99.90
22364;DHT22;11349;53.412;-1.328;2023-11-21T01:33:46;9.80;99.90
22364;DHT22;11349;53.412;-1.328;2023-11-21T01:36:12;10.00;99.90
22364;DHT22;11349;53.412;-1.328;2023-11-21T01:38:37;10.00;99.90
22364;DHT22;11349;53.412;-1.328;2023-11-21T01:41:03;9.90;99.90
22364;DHT22;11349;53.412;-1.328;2023-11-21T01:43:30;9.80;1.00
22364;DHT22;11349;53.412;-1.328;2023-11-21T01:45:57;9.80;1.00
22364;DHT22;11349;53.412;-1.328;2023-11-21T01:48:24;9.80;99.90
22364;DHT22;11349;53.412;-1.328;2023-11-21T01:50:50;9.80;99.90
22364;DHT22;11349;53.412;-1.328;2023-11-21T01:53:16;9.90;99.90
22364;DHT22;11349;53.412;-1.328;2023-11-21T01:55:42;9.90;99.90
22364;DHT22;11349;53.412;-1.328;2023-11-21T01:58:09;9.90;99.90
22364;DHT22;11349;53.412;-1.328;2023-11-21T02:00:35;9.80;99.90
22364;DHT22;11349;53.412;-1.328;2023-11-21T02:03:01;9.70;99.90
22364;DHT22;11349;53.412;-1.328;2023-11-21T02:05:27;9.80;99.90
22364;DHT22;11349;53.412;-1.328;2023-11-21T02:07:54;9.70;99.90
22364;DHT22;11349;53.412;-1.328;2023-11-21T02:10:22;9.80;99.90
22364;DHT22;11349;53.412;-1.328;2023-11-21T02:12:51;9.80;99.90
22364;DHT22;11349;53.412;-1.328;2023-11-21T02:15:17;9.80;99.90
22364;DHT22;11349;53.412;-1.328;2023-11-21T02:17:47;9.80;99.90
22364;DHT22;11349;53.412;-1.328;2023-11-21T02:20:17;9.90;99.90
22364;DHT22;11349;53.412;-1.328;2023-11-21T02:22:51;9.90;99.90
22364;DHT22;11349;53.412;-1.328;2023-11-21T02:25:31;9.90;99.90
22364;DHT22;11349;53.412;-1.328;2023-11-21T02:28:01;9.80;99.90
22364;DHT22;11349;53.412;-1.328;2023-11-21T02:30:28;9.90;99.90
22364;DHT22;11349;53.412;-1.328;2023-11-21T02:32:54;9.80;99.90
22364;DHT22;11349;53.412;-1.328;2023-11-21T02:35:22;9.80;99.90
22364;DHT22;11349;53.412;-1.328;2023-11-21T02:37:48;9.80;99.90
22364;DHT22;11349;53.412;-1.328;2023-11-21T02:40:14;9.80;99.90
22364;DHT22;11349;53.412;-1.328;2023-11-21T02:42:52;9.80;99.90
22364;DHT22;11349;53.412;-1.328;2023-11-21T02:45:19;9.70;99.90
22364;DHT22;11349;53.412;-1.328;2023-11-21T02:47:46;9.70;99.90
22364;DHT22;11349;53.412;-1.328;2023-11-21T02:50:12;9.80;99.90
22364;DHT22;11349;53.412;-1.328;2023-11-21T02:52:38;9.80;99.90
22364;DHT22;11349;53.412;-1.328;2023-11-21T02:55:06;9.80;99.90
22364;DHT22;11349;53.412;-1.328;2023-11-21T02:57:32;9.70;99.90
22364;DHT22;11349;53.412;-1.328;2023-11-21T02:59:59;9.70;99.90
22364;DHT22;11349;53.412;-1.328;2023-11-21T03:02:25;9.80;99.90
22364;DHT22;11349;53.412;-1.328;2023-11-21T03:04:51;9.80;99.90
22364;DHT22;11349;53.412;-1.328;2023-11-21T03:07:17;9.70;99.90
22364;DHT22;11349;53.412;-1.328;2023-11-21T03:09:46;9.70;99.90
22364;DHT22;11349;53.412;-1.328;2023-11-21T03:12:12;9.70;99.90
22364;DHT22;11349;53.412;-1.328;2023-11-21T03:14:38;9.70;99.90
22364;DHT22;11349;53.412;-1.328;2023-11-21T03:17:04;9.70;99.90
22364;DHT22;11349;53.412;-1.328;2023-11-21T03:19:32;9.70;99.90
22364;DHT22;11349;53.412;-1.328;2023-11-21T03:21:57;9.80;99.90
22364;DHT22;11349;53.412;-1.328;2023-11-21T03:24:24;9.80;99.90
22364;DHT22;11349;53.412;-1.328;2023-11-21T03:26:50;9.70;99.90
22364;DHT22;11349;53.412;-1.328;2023-11-21T03:29:16;9.80;99.90
22364;DHT22;11349;53.412;-1.328;2023-11-21T03:31:43;9.80;99.90
22364;DHT22;11349;53.412;-1.328;2023-11-21T03:34:27;9.80;99.90
22364;DHT22;11349;53.412;-1.328;2023-11-21T03:36:53;9.80;99.90
22364;DHT22;11349;53.412;-1.328;2023-11-21T03:39:23;9.80;99.90
22364;DHT22;11349;53.412;-1.328;2023-11-21T03:41:51;9.80;99.90
22364;DHT22;11349;53.412;-1.328;2023-11-21T03:44:17;9.90;99.90
22364;DHT22;11349;53.412;-1.328;2023-11-21T03:46:43;9.80;99.90
22364;DHT22;11349;53.412;-1.328;2023-11-21T03:49:09;9.90;99.90
22364;DHT22;11349;53.412;-1.328;2023-11-21T03:51:36;9.80;99.90
22364;DHT22;11349;53.412;-1.328;2023-11-21T03:54:03;9.80;99.90
22364;DHT22;11349;53.412;-1.328;2023-11-21T03:56:28;9.80;99.90
22364;DHT22;11349;53.412;-1.328;2023-11-21T03:58:54;9.80;99.90
22364;DHT22;11349;53.412;-1.328;2023-11-21T04:01:24;9.80;99.90
22364;DHT22;11349;53.412;-1.328;2023-11-21T04:03:50;9.80;99.90
22364;DHT22;11349;53.412;-1.328;2023-11-21T04:06:17;9.80;99.90
22364;DHT22;11349;53.412;-1.328;2023-11-21T04:08:45;9.80;99.90
22364;DHT22;11349;53.412;-1.328;2023-11-21T04:11:11;9.80;99.90
22364;DHT22;11349;53.412;-1.328;2023-11-21T04:13:41;9.90;99.90
22364;DHT22;11349;53.412;-1.328;2023-11-21T04:16:08;9.80;99.90
22364;DHT22;11349;53.412;-1.328;2023-11-21T04:18:36;9.90;99.90
22364;DHT22;11349;53.412;-1.328;2023-11-21T04:21:02;9.90;99.90
22364;DHT22;11349;53.412;-1.328;2023-11-21T04:23:29;9.80;99.90
22364;DHT22;11349;53.412;-1.328;2023-11-21T04:25:55;9.80;99.90
22364;DHT22;11349;53.412;-1.328;2023-11-21T04:28:23;9.80;1.00
22364;DHT22;11349;53.412;-1.328;2023-11-21T04:30:50;9.80;49.10
22364;DHT22;11349;53.412;-1.328;2023-11-21T04:33:15;9.80;92.00
22364;DHT22;11349;53.412;-1.328;2023-11-21T04:35:41;9.80;58.00
22364;DHT22;11349;53.412;-1.328;2023-11-21T04:38:07;9.70;99.90
22364;DHT22;11349;53.412;-1.328;2023-11-21T04:40:33;9.80;99.90
22364;DHT22;11349;53.412;-1.328;2023-11-21T04:42:59;9.80;99.90
22364;DHT22;11349;53.412;-1.328;2023-11-21T04:45:24;9.80;99.90
22364;DHT22;11349;53.412;-1.328;2023-11-21T04:47:50;9.80;99.90
22364;DHT22;11349;53.412;-1.328;2023-11-21T04:50:18;9.80;99.90
22364;DHT22;11349;53.412;-1.328;2023-11-21T04:52:44;9.80;99.90
22364;DHT22;11349;53.412;-1.328;2023-11-21T04:55:10;9.80;99.90
22364;DHT22;11349;53.412;-1.328;2023-11-21T04:57:39;9.80;99.90
22364;DHT22;11349;53.412;-1.328;2023-11-21T05:00:09;9.80;99.90
22364;DHT22;11349;53.412;-1.328;2023-11-21T05:02:35;9.80;99.90
22364;DHT22;11349;53.412;-1.328;2023-11-21T05:05:01;9.80;99.90
22364;DHT22;11349;53.412;-1.328;2023-11-21T05:07:27;9.80;99.90
22364;DHT22;11349;53.412;-1.328;2023-11-21T05:09:56;9.90;99.90
22364;DHT22;11349;53.412;-1.328;2023-11-21T05:12:22;10.00;99.90
22364;DHT22;11349;53.412;-1.328;2023-11-21T05:14:49;9.90;99.90
22364;DHT22;11349;53.412;-1.328;2023-11-21T05:17:15;9.70;99.90
22364;DHT22;11349;53.412;-1.328;2023-11-21T05:19:41;9.80;99.90
22364;DHT22;11349;53.412;-1.328;2023-11-21T05:22:06;9.80;99.90
22364;DHT22;11349;53.412;-1.328;2023-11-21T05:24:34;9.80;99.90
22364;DHT22;11349;53.412;-1.328;2023-11-21T05:27:00;9.80;99.90
22364;DHT22;11349;53.412;-1.328;2023-11-21T05:29:26;9.80;99.90
22364;DHT22;11349;53.412;-1.328;2023-11-21T05:31:52;9.90;99.90
22364;DHT22;11349;53.412;-1.328;2023-11-21T05:34:18;9.80;99.90
22364;DHT22;11349;53.412;-1.328;2023-11-21T05:36:46;9.90;99.90
22364;DHT22;11349;53.412;-1.328;2023-11-21T05:39:12;9.80;99.90
22364;DHT22;11349;53.412;-1.328;2023-11-21T05:41:37;9.70;99.90
22364;DHT22;11349;53.412;-1.328;2023-11-21T05:44:03;9.80;99.90
22364;DHT22;11349;53.412;-1.328;2023-11-21T05:46:29;9.80;99.90
22364;DHT22;11349;53.412;-1.328;2023-11-21T05:48:54;9.90;99.90
22364;DHT22;11349;53.412;-1.328;2023-11-21T05:51:20;9.80;99.90
22364;DHT22;11349;53.412;-1.328;2023-11-21T05:53:46;9.70;99.90
22364;DHT22;11349;53.412;-1.328;2023-11-21T05:56:12;9.70;99.90
22364;DHT22;11349;53.412;-1.328;2023-11-21T05:58:39;9.70;99.90
22364;DHT22;11349;53.412;-1.328;2023-11-21T06:01:06;9.70;99.90
22364;DHT22;11349;53.412;-1.328;2023-11-21T06:03:35;9.70;99.90
22364;DHT22;11349;53.412;-1.328;2023-11-21T06:06:00;9.80;99.90
22364;DHT22;11349;53.412;-1.328;2023-11-21T06:08:26;9.80;99.90
22364;DHT22;11349;53.412;-1.328;2023-11-21T06:10:52;9.70;99.90
22364;DHT22;11349;53.412;-1.328;2023-11-21T06:13:17;9.80;99.90
22364;DHT22;11349;53.412;-1.328;2023-11-21T06:15:52;9.80;99.90
22364;DHT22;11349;53.412;-1.328;2023-11-21T06:18:18;9.60;99.90
22364;DHT22;11349;53.412;-1.328;2023-11-21T06:20:47;9.60;99.90
22364;DHT22;11349;53.412;-1.328;2023-11-21T06:23:13;9.60;99.90
22364;DHT22;11349;53.412;-1.328;2023-11-21T06:25:39;9.60;99.90
22364;DHT22;11349;53.412;-1.328;2023-11-21T06:28:06;9.60;99.90
22364;DHT22;11349;53.412;-1.328;2023-11-21T06:30:31;9.60;99.90
22364;DHT22;11349;53.412;-1.328;2023-11-21T06:32:57;9.60;99.90
22364;DHT22;11349;53.412;-1.328;2023-11-21T06:35:23;9.60;99.90
22364;DHT22;11349;53.412;-1.328;2023-11-21T06:37:49;9.50;99.90
22364;DHT22;11349;53.412;-1.328;2023-11-21T06:40:15;9.50;99.90
22364;DHT22;11349;53.412;-1.328;2023-11-21T06:42:41;9.50;99.90
22364;DHT22;11349;53.412;-1.328;2023-11-21T06:45:07;9.50;99.90
22364;DHT22;11349;53.412;-1.328;2023-11-21T06:47:33;9.40;99.90
22364;DHT22;11349;53.412;-1.328;2023-11-21T06:50:00;9.40;99.90
22364;DHT22;11349;53.412;-1.328;2023-11-21T06:52:26;9.50;99.90
22364;DHT22;11349;53.412;-1.328;2023-11-21T06:54:51;9.40;99.90
22364;DHT22;11349;53.412;-1.328;2023-11-21T06:57:18;9.40;99.90
22364;DHT22;11349;53.412;-1.328;2023-11-21T06:59:44;9.40;99.90
22364;DHT22;11349;53.412;-1.328;2023-11-21T07:02:10;9.40;99.90
22364;DHT22;11349;53.412;-1.328;2023-11-21T07:04:36;9.40;99.90
22364;DHT22;11349;53.412;-1.328;2023-11-21T07:07:03;9.30;99.90
22364;DHT22;11349;53.412;-1.328;2023-11-21T07:09:29;9.30;99.90
22364;DHT22;11349;53.412;-1.328;2023-11-21T07:11:55;9.30;99.90
22364;DHT22;11349;53.412;-1.328;2023-11-21T07:14:21;9.20;99.90
22364;DHT22;11349;53.412;-1.328;2023-11-21T07:16:47;9.30;99.90
22364;DHT22;11349;53.412;-1.328;2023-11-21T07:19:13;9.30;99.90
22364;DHT22;11349;53.412;-1.328;2023-11-21T07:21:40;9.40;99.90
22364;DHT22;11349;53.412;-1.328;2023-11-21T07:24:06;9.40;99.90
22364;DHT22;11349;53.412;-1.328;2023-11-21T07:26:33;9.40;99.90
22364;DHT22;11349;53.412;-1.328;2023-11-21T07:29:00;9.30;99.90
22364;DHT22;11349;53.412;-1.328;2023-11-21T07:31:26;9.30;99.90
22364;DHT22;11349;53.412;-1.328;2023-11-21T07:33:52;9.20;99.90
22364;DHT22;11349;53.412;-1.328;2023-11-21T07:36:19;9.30;99.90
22364;DHT22;11349;53.412;-1.328;2023-11-21T07:38:46;9.20;99.90
22364;DHT22;11349;53.412;-1.328;2023-11-21T07:41:12;9.20;99.90
22364;DHT22;11349;53.412;-1.328;2023-11-21T07:43:43;9.20;99.90
22364;DHT22;11349;53.412;-1.328;2023-11-21T07:46:10;9.20;99.90
22364;DHT22;11349;53.412;-1.328;2023-11-21T07:48:38;9.20;99.90
22364;DHT22;11349;53.412;-1.328;2023-11-21T07:51:04;9.10;99.90
22364;DHT22;11349;53.412;-1.328;2023-11-21T07:53:30;9.10;99.90
22364;DHT22;11349;53.412;-1.328;2023-11-21T07:55:57;9.10;99.90
22364;DHT22;11349;53.412;-1.328;2023-11-21T07:58:23;9.10;99.90
22364;DHT22;11349;53.412;-1.328;2023-11-21T08:00:50;9.10;99.90
22364;DHT22;11349;53.412;-1.328;2023-11-21T08:03:16;9.10;99.90
22364;DHT22;11349;53.412;-1.328;2023-11-21T08:05:42;9.10;99.90
22364;DHT22;11349;53.412;-1.328;2023-11-21T08:08:08;9.10;99.90
22364;DHT22;11349;53.412;-1.328;2023-11-21T08:10:34;9.10;99.90
22364;DHT22;11349;53.412;-1.328;2023-11-21T08:13:05;9.00;99.90
22364;DHT22;11349;53.412;-1.328;2023-11-21T08:15:31;9.10;99.90
22364;DHT22;11349;53.412;-1.328;2023-11-21T08:17:58;9.10;99.90
22364;DHT22;11349;53.412;-1.328;2023-11-21T08:20:26;9.20;99.90
22364;DHT22;11349;53.412;-1.328;2023-11-21T08:22:52;9.10;99.90
22364;DHT22;11349;53.412;-1.328;2023-11-21T08:25:18;9.00;99.90
22364;DHT22;11349;53.412;-1.328;2023-11-21T08:27:46;8.90;99.90
22364;DHT22;11349;53.412;-1.328;2023-11-21T08:30:12;8.90;99.90
22364;DHT22;11349;53.412;-1.328;2023-11-21T08:32:39;9.10;99.90
22364;DHT22;11349;53.412;-1.328;2023-11-21T08:35:07;9.00;99.90
22364;DHT22;11349;53.412;-1.328;2023-11-21T08:37:33;9.00;99.90
22364;DHT22;11349;53.412;-1.328;2023-11-21T08:40:03;8.90;99.90
22364;DHT22;11349;53.412;-1.328;2023-11-21T08:42:29;8.90;99.90
22364;DHT22;11349;53.412;-1.328;2023-11-21T08:44:56;9.00;99.90
22364;DHT22;11349;53.412;-1.328;2023-11-21T08:47:25;9.00;99.90
22364;DHT22;11349;53.412;-1.328;2023-11-21T08:49:51;8.90;99.90
22364;DHT22;11349;53.412;-1.328;2023-11-21T08:52:20;8.90;99.90
22364;DHT22;11349;53.412;-1.328;2023-11-21T08:54:52;9.00;99.90
22364;DHT22;11349;53.412;-1.328;2023-11-21T08:57:25;9.00;99.90
22364;DHT22;11349;53.412;-1.328;2023-11-21T08:59:50;9.00;99.90
22364;DHT22;11349;53.412;-1.328;2023-11-21T09:02:26;9.00;99.90
22364;DHT22;11349;53.412;-1.328;2023-11-21T09:04:52;9.00;99.90
22364;DHT22;11349;53.412;-1.328;2023-11-21T09:07:21;9.00;99.90
22364;DHT22;11349;53.412;-1.328;2023-11-21T09:09:47;9.00;99.90
22364;DHT22;11349;53.412;-1.328;2023-11-21T09:12:13;9.00;99.90
22364;DHT22;11349;53.412;-1.328;2023-11-21T09:14:39;9.00;99.90
22364;DHT22;11349;53.412;-1.328;2023-11-21T09:17:05;9.00;99.90
22364;DHT22;11349;53.412;-1.328;2023-11-21T09:19:40;8.90;99.90
22364;DHT22;11349;53.412;-1.328;2023-11-21T09:22:06;8.90;99.90
22364;DHT22;11349;53.412;-1.328;2023-11-21T09:24:35;9.00;99.90
22364;DHT22;11349;53.412;-1.328;2023-11-21T09:27:00;9.00;99.90
22364;DHT22;11349;53.412;-1.328;2023-11-21T09:29:27;8.90;99.90
22364;DHT22;11349;53.412;-1.328;2023-11-21T09:31:52;9.00;99.90
22364;DHT22;11349;53.412;-1.328;2023-11-21T09:34:21;9.00;99.90
22364;DHT22;11349;53.412;-1.328;2023-11-21T09:36:47;9.00;99.90
22364;DHT22;11349;53.412;-1.328;2023-11-21T09:39:13;9.00;99.90
22364;DHT22;11349;53.412;-1.328;2023-11-21T09:41:51;9.00;99.90
22364;DHT22;11349;53.412;-1.328;2023-11-21T09:44:30;9.00;99.90
22364;DHT22;11349;53.412;-1.328;2023-11-21T09:46:59;9.10;99.90
22364;DHT22;11349;53.412;-1.328;2023-11-21T09:49:26;9.10;99.90
22364;DHT22;11349;53.412;-1.328;2023-11-21T09:51:55;9.00;99.90
22364;DHT22;11349;53.412;-1.328;2023-11-21T09:54:24;9.10;99.90
22364;DHT22;11349;53.412;-1.328;2023-11-21T09:56:50;9.10;99.90
22364;DHT22;11349;53.412;-1.328;2023-11-21T09:59:16;9.00;99.90
22364;DHT22;11349;53.412;-1.328;2023-11-21T10:01:42;9.00;99.90
22364;DHT22;11349;53.412;-1.328;2023-11-21T10:04:09;9.10;99.90
22364;DHT22;11349;53.412;-1.328;2023-11-21T10:06:41;9.10;99.90
22364;DHT22;11349;53.412;-1.328;2023-11-21T10:09:10;9.10;99.90
22364;DHT22;11349;53.412;-1.328;2023-11-21T10:11:44;9.10;99.90
22364;DHT22;11349;53.412;-1.328;2023-11-21T10:14:13;9.00;99.90
22364;DHT22;11349;53.412;-1.328;2023-11-21T10:16:44;8.80;99.90
22364;DHT22;11349;53.412;-1.328;2023-11-21T10:19:13;8.90;99.90
22364;DHT22;11349;53.412;-1.328;2023-11-21T10:21:39;9.00;99.90
22364;DHT22;11349;53.412;-1.328;2023-11-21T10:24:05;9.00;99.90
22364;DHT22;11349;53.412;-1.328;2023-11-21T10:26:32;9.00;99.90
22364;DHT22;11349;53.412;-1.328;2023-11-21T10:29:00;9.10;99.90
22364;DHT22;11349;53.412;-1.328;2023-11-21T10:31:30;9.20;99.90
22364;DHT22;11349;53.412;-1.328;2023-11-21T10:34:15;9.20;99.90
22364;DHT22;11349;53.412;-1.328;2023-11-21T10:36:41;9.20;99.90
22364;DHT22;11349;53.412;-1.328;2023-11-21T10:39:07;9.20;99.90
22364;DHT22;11349;53.412;-1.328;2023-11-21T10:41:33;9.20;99.90
22364;DHT22;11349;53.412;-1.328;2023-11-21T10:44:01;9.10;99.90
22364;DHT22;11349;53.412;-1.328;2023-11-21T10:46:29;9.20;99.90
22364;DHT22;11349;53.412;-1.328;2023-11-21T10:48:56;9.30;99.90
22364;DHT22;11349;53.412;-1.328;2023-11-21T10:51:22;9.30;99.90
22364;DHT22;11349;53.412;-1.328;2023-11-21T10:53:52;9.30;99.90
22364;DHT22;11349;53.412;-1.328;2023-11-21T10:56:19;9.40;99.90
22364;DHT22;11349;53.412;-1.328;2023-11-21T10:58:50;9.40;99.90
22364;DHT22;11349;53.412;-1.328;2023-11-21T11:01:19;9.40;99.90
22364;DHT22;11349;53.412;-1.328;2023-11-21T11:03:49;9.30;99.90
22364;DHT22;11349;53.412;-1.328;2023-11-21T11:06:16;9.50;99.90
22364;DHT22;11349;53.412;-1.328;2023-11-21T11:08:42;9.50;99.90
22364;DHT22;11349;53.412;-1.328;2023-11-21T11:11:09;9.60;99.90
22364;DHT22;11349;53.412;-1.328;2023-11-21T11:13:35;9.60;99.90
22364;DHT22;11349;53.412;-1.328;2023-11-21T11:16:03;9.50;99.90
22364;DHT22;11349;53.412;-1.328;2023-11-21T11:18:33;9.60;99.90
22364;DHT22;11349;53.412;-1.328;2023-11-21T11:21:09;9.60;99.90
22364;DHT22;11349;53.412;-1.328;2023-11-21T11:26:39;9.60;99.90
22364;DHT22;11349;53.412;-1.328;2023-11-21T11:34:44;9.80;99.90
22364;DHT22;11349;53.412;-1.328;2023-11-21T11:37:12;9.70;99.90
22364;DHT22;11349;53.412;-1.328;2023-11-21T11:39:42;9.80;99.90
22364;DHT22;11349;53.412;-1.328;2023-11-21T11:42:17;9.70;99.90
22364;DHT22;11349;53.412;-1.328;2023-11-21T11:47:31;9.70;99.90
22364;DHT22;11349;53.412;-1.328;2023-11-21T11:50:09;9.80;99.90
22364;DHT22;11349;53.412;-1.328;2023-11-21T11:52:49;9.70;99.90
22364;DHT22;11349;53.412;-1.328;2023-11-21T11:55:18;9.80;99.90
22364;DHT22;11349;53.412;-1.328;2023-11-21T11:57:49;9.70;99.90
22364;DHT22;11349;53.412;-1.328;2023-11-21T12:02:59;9.80;99.90
22364;DHT22;11349;53.412;-1.328;2023-11-21T12:05:28;9.90;99.90
22364;DHT22;11349;53.412;-1.328;2023-11-21T12:07:55;9.70;99.90
22364;DHT22;11349;53.412;-1.328;2023-11-21T12:10:24;9.70;99.90
22364;DHT22;11349;53.412;-1.328;2023-11-21T12:13:09;9.70;99.90
22364;DHT22;11349;53.412;-1.328;2023-11-21T12:15:36;9.80;99.90
22364;DHT22;11349;53.412;-1.328;2023-11-21T12:18:02;9.80;99.90
22364;DHT22;11349;53.412;-1.328;2023-11-21T12:20:29;9.80;99.90
22364;DHT22;11349;53.412;-1.328;2023-11-21T12:22:58;9.70;99.90
22364;DHT22;11349;53.412;-1.328;2023-11-21T12:25:31;9.70;99.90
22364;DHT22;11349;53.412;-1.328;2023-11-21T12:27:58;9.80;99.90
22364;DHT22;11349;53.412;-1.328;2023-11-21T12:30:27;9.90;99.90
22364;DHT22;11349;53.412;-1.328;2023-11-21T12:32:57;9.80;99.90
22364;DHT22;11349;53.412;-1.328;2023-11-21T12:35:27;9.90;99.90
22364;DHT22;11349;53.412;-1.328;2023-11-21T12:37:55;10.00;99.90
22364;DHT22;11349;53.412;-1.328;2023-11-21T12:40:24;10.00;99.90
22364;DHT22;11349;53.412;-1.328;2023-11-21T12:42:56;10.20;99.90
22364;DHT22;11349;53.412;-1.328;2023-11-21T12:45:29;10.00;99.90
22364;DHT22;11349;53.412;-1.328;2023-11-21T12:47:58;10.00;99.90
22364;DHT22;11349;53.412;-1.328;2023-11-21T12:50:30;10.00;99.90
22364;DHT22;11349;53.412;-1.328;2023-11-21T12:53:12;10.00;99.90
22364;DHT22;11349;53.412;-1.328;2023-11-21T12:55:38;9.80;99.90
22364;DHT22;11349;53.412;-1.328;2023-11-21T12:58:06;9.80;99.90
22364;DHT22;11349;53.412;-1.328;2023-11-21T13:00:36;9.70;99.90
22364;DHT22;11349;53.412;-1.328;2023-11-21T13:03:07;9.80;99.90
22364;DHT22;11349;53.412;-1.328;2023-11-21T13:05:37;9.80;99.90
22364;DHT22;11349;53.412;-1.328;2023-11-21T13:08:11;9.80;99.90
22364;DHT22;11349;53.412;-1.328;2023-11-21T13:10:43;9.80;99.90
22364;DHT22;11349;53.412;-1.328;2023-11-21T13:13:12;9.90;99.90
22364;DHT22;11349;53.412;-1.328;2023-11-21T13:15:53;9.90;99.90
22364;DHT22;11349;53.412;-1.328;2023-11-21T13:18:25;9.90;99.90
22364;DHT22;11349;53.412;-1.328;2023-11-21T13:20:57;9.90;99.90
22364;DHT22;11349;53.412;-1.328;2023-11-21T13:23:24;9.90;99.90
22364;DHT22;11349;53.412;-1.328;2023-11-21T13:25:51;9.90;99.90
22364;DHT22;11349;53.412;-1.328;2023-11-21T13:28:16;9.90;99.90
22364;DHT22;11349;53.412;-1.328;2023-11-21T13:30:46;9.90;99.90
22364;DHT22;11349;53.412;-1.328;2023-11-21T13:33:13;9.80;99.90
22364;DHT22;11349;53.412;-1.328;2023-11-21T13:35:44;9.70;99.90
22364;DHT22;11349;53.412;-1.328;2023-11-21T13:38:15;9.80;99.90
22364;DHT22;11349;53.412;-1.328;2023-11-21T13:40:48;9.80;99.90
22364;DHT22;11349;53.412;-1.328;2023-11-21T13:43:19;9.80;99.90
22364;DHT22;11349;53.412;-1.328;2023-11-21T13:45:47;9.90;99.90
22364;DHT22;11349;53.412;-1.328;2023-11-21T13:48:15;9.90;99.90
22364;DHT22;11349;53.412;-1.328;2023-11-21T13:50:51;9.90;99.90
22364;DHT22;11349;53.412;-1.328;2023-11-21T13:53:35;10.00;99.90
22364;DHT22;11349;53.412;-1.328;2023-11-21T13:56:03;9.90;99.90
22364;DHT22;11349;53.412;-1.328;2023-11-21T13:58:29;10.00;99.90
22364;DHT22;11349;53.412;-1.328;2023-11-21T14:01:16;9.90;99.90
22364;DHT22;11349;53.412;-1.328;2023-11-21T14:03:58;9.90;99.90
22364;DHT22;11349;53.412;-1.328;2023-11-21T14:06:33;9.90;99.90
22364;DHT22;11349;53.412;-1.328;2023-11-21T14:09:05;9.80;99.90
22364;DHT22;11349;53.412;-1.328;2023-11-21T14:11:33;9.70;99.90
22364;DHT22;11349;53.412;-1.328;2023-11-21T14:14:02;9.70;99.90
22364;DHT22;11349;53.412;-1.328;2023-11-21T14:16:28;9.60;99.90
22364;DHT22;11349;53.412;-1.328;2023-11-21T14:18:54;9.70;99.90
22364;DHT22;11349;53.412;-1.328;2023-11-21T14:21:29;9.80;99.90
22364;DHT22;11349;53.412;-1.328;2023-11-21T14:23:55;9.80;99.90
22364;DHT22;11349;53.412;-1.328;2023-11-21T14:26:21;9.80;99.90
22364;DHT22;11349;53.412;-1.328;2023-11-21T14:28:49;9.80;99.90
22364;DHT22;11349;53.412;-1.328;2023-11-21T14:31:15;9.80;99.90
22364;DHT22;11349;53.412;-1.328;2023-11-21T14:33:45;9.60;99.90
22364;DHT22;11349;53.412;-1.328;2023-11-21T14:36:11;9.60;99.90
22364;DHT22;11349;53.412;-1.328;2023-11-21T14:38:37;9.60;99.90
22364;DHT22;11349;53.412;-1.328;2023-11-21T14:41:05;9.60;99.90
22364;DHT22;11349;53.412;-1.328;2023-11-21T14:43:34;9.60;99.90
22364;DHT22;11349;53.412;-1.328;2023-11-21T14:46:01;9.70;99.90
22364;DHT22;11349;53.412;-1.328;2023-11-21T14:48:29;9.70;99.90
22364;DHT22;11349;53.412;-1.328;2023-11-21T14:51:19;9.50;99.90
22364;DHT22;11349;53.412;-1.328;2023-11-21T14:54:00;9.40;99.90
22364;DHT22;11349;53.412;-1.328;2023-11-21T14:56:32;9.50;99.90
22364;DHT22;11349;53.412;-1.328;2023-11-21T14:59:01;9.40;99.90
22364;DHT22;11349;53.412;-1.328;2023-11-21T15:01:45;9.50;99.90
22364;DHT22;11349;53.412;-1.328;2023-11-21T15:04:22;9.40;99.90
22364;DHT22;11349;53.412;-1.328;2023-11-21T15:07:10;9.50;99.90
22364;DHT22;11349;53.412;-1.328;2023-11-21T15:09:37;9.50;99.90
22364;DHT22;11349;53.412;-1.328;2023-11-21T15:12:08;9.40;99.90
22364;DHT22;11349;53.412;-1.328;2023-11-21T15:14:46;9.40;99.90
22364;DHT22;11349;53.412;-1.328;2023-11-21T15:17:15;9.30;99.90
22364;DHT22;11349;53.412;-1.328;2023-11-21T15:19:48;9.30;99.90
22364;DHT22;11349;53.412;-1.328;2023-11-21T15:22:14;9.20;99.90
22364;DHT22;11349;53.412;-1.328;2023-11-21T15:24:42;9.20;99.90
22364;DHT22;11349;53.412;-1.328;2023-11-21T15:27:10;9.20;99.90
22364;DHT22;11349;53.412;-1.328;2023-11-21T15:29:37;9.20;99.90
22364;DHT22;11349;53.412;-1.328;2023-11-21T15:32:03;9.10;99.90
22364;DHT22;11349;53.412;-1.328;2023-11-21T15:34:28;9.10;99.90
22364;DHT22;11349;53.412;-1.328;2023-11-21T15:36:56;9.10;99.90
22364;DHT22;11349;53.412;-1.328;2023-11-21T15:39:22;9.10;99.90
22364;DHT22;11349;53.412;-1.328;2023-11-21T15:41:51;9.10;99.90
22364;DHT22;11349;53.412;-1.328;2023-11-21T15:44:16;9.00;99.90
22364;DHT22;11349;53.412;-1.328;2023-11-21T15:46:42;8.90;99.90
22364;DHT22;11349;53.412;-1.328;2023-11-21T15:49:08;9.00;99.90